Pagrindinis puslapis
METAR-TAF:

METAR-TAF

Oro uostai :

Stokmarknes, Norvegija

platuma: 68-35N, ilguma: 015-01E, Aukštis: 0 m

Dabartinis oras

Ataskaita buvo paskelbta 6 valandos ir 21 minutes, ne 07:20 UTC
Vėjas 8 kt iš Pietryčių, svyruoja nuo Rytų ir Pietų/Pietryčių
Temperatūra 15°C
Drėgmė 55%
Slėgis 1026 hPa
Matomumas 10 km arba daugiau
nėra debesų žemiau 1500 m ir nėra kamuolinių lietaus debesų

METAR: ENSK 010720Z 13008KT 100V160 CAVOK 15/06 Q1026

Laikas: 15:41 (13:41 UTC)


TAF: trūkstamas

Orai ataskaitas ir orų prognozės (METAR, TAF).

turimą stotys yra geltonos ir raudonos taškus žemėlapyje.

Perkelti pele per norėdami pamatyti stoties vardą.

Tada spustelėkite, norėdami matyti oro stebėjimo ir prognozės.

Norėdami pakeisti žemėlapį: spustelėkite ant žalios mygtukų su juodo kryžiaus žemyn,; žalią mygtuką su brūkšneliu, jei norite nutolinti; arba žalių rodyklių gretimoms žemėlapius.


METAR-TAF: